ADDS METAR Data INFO
IDs: Format: Raw Decoded Include TAF

Data at: 0540 UTC 11 Dec 2017

METAR for:KHLX (Hillsville/Twin Cnty, VA, US)
Text:KHLX 110535Z AUTO 29010G16KT 10SM CLR 00/M08 A3002 RMK AO2 T10051082
Temperature: -0.5°C ( 31°F)
Dewpoint: -8.2°C ( 17°F) [RH = 56%]
Pressure (altimeter):30.02 inches Hg (1016.7 mb)
Winds:from the WNW (290 degrees) at 12 MPH (10 knots; 5.1 m/s) gusting to 18 MPH (16 knots; 8.2 m/s)
Visibility:10 or more sm (16+ km)
Ceiling:at least 12,000 feet AGL
Clouds:sky clear below 12,000 feet AGL
QC Flag:automated observation with no human augmentation